createdAt,value
2019-04-28T00:00:48.783Z,98790.00
2019-04-28T00:03:15.824Z,98794.27
2019-04-28T00:05:42.859Z,98788.93
2019-04-28T00:08:10.878Z,98792.13
2019-04-28T00:10:38.092Z,98790.25
2019-04-28T00:13:05.748Z,98789.72
2019-04-28T00:15:33.284Z,98795.06
2019-04-28T00:18:01.576Z,98803.85
2019-04-28T00:20:48.435Z,98792.92
2019-04-28T00:23:27.956Z,98793.73
2019-04-28T00:26:06.871Z,98792.92
2019-04-28T00:28:33.893Z,98786.77
2019-04-28T00:31:02.458Z,98783.33
2019-04-28T00:33:31.407Z,98784.66
2019-04-28T00:35:58.594Z,98783.58
2019-04-28T00:38:26.268Z,98781.70
2019-04-28T00:40:53.868Z,98781.17
2019-04-28T00:43:21.853Z,98785.44
2019-04-28T00:45:48.873Z,98788.89
2019-04-28T00:48:16.130Z,98781.44
2019-04-28T00:50:43.818Z,98777.44
2019-04-28T00:53:11.673Z,98779.55
2019-04-28T00:55:38.789Z,98776.10
2019-04-28T00:58:06.062Z,98777.70
2019-04-28T01:00:35.564Z,98780.10
2019-04-28T01:03:02.593Z,98775.03
2019-04-28T01:05:31.194Z,98780.36
2019-04-28T01:07:58.580Z,98776.91
2019-04-28T01:10:27.059Z,98780.10
2019-04-28T01:12:54.383Z,98777.70
2019-04-28T01:15:50.306Z,98771.31
2019-04-28T01:18:24.006Z,98777.98
2019-04-28T01:20:51.336Z,98780.63
2019-04-28T01:23:20.255Z,98771.03
2019-04-28T01:25:50.007Z,98772.08
2019-04-28T01:28:17.095Z,98771.03
2019-04-28T01:30:52.339Z,98775.03
2019-04-28T01:33:40.662Z,98777.70
2019-04-28T01:36:10.360Z,98769.15
2019-04-28T01:38:39.701Z,98772.08
2019-04-28T01:41:09.718Z,98772.08
2019-04-28T01:43:36.905Z,98770.22
2019-04-28T01:46:03.963Z,98776.90
2019-04-28T01:48:31.490Z,98776.63
2019-04-28T01:50:59.802Z,98777.42
2019-04-28T01:53:27.248Z,98781.66
2019-04-28T01:55:54.285Z,98788.87
2019-04-28T01:58:21.313Z,98789.14
2019-04-28T02:00:50.397Z,98790.73
2019-04-28T02:03:17.612Z,98789.66
2019-04-28T02:05:44.634Z,98794.48
2019-04-28T02:08:11.665Z,98791.81
2019-04-28T02:10:40.259Z,98788.85
2019-04-28T02:13:07.432Z,98782.19
2019-04-28T02:15:34.478Z,98790.19
2019-04-28T02:18:02.380Z,98781.92
2019-04-28T02:20:30.178Z,98786.18
2019-04-28T02:23:01.932Z,98779.80
2019-04-28T02:25:29.835Z,98778.18
2019-04-28T02:27:59.583Z,98784.85
2019-04-28T02:30:44.070Z,98784.59
2019-04-28T02:32:55.655Z,98786.45
2019-04-28T02:35:22.850Z,98777.11
2019-04-28T02:37:50.498Z,98773.63
2019-04-28T02:40:20.499Z,98781.63
2019-04-28T02:42:46.599Z,98776.30
2019-04-28T02:45:17.659Z,98771.22
2019-04-28T02:47:44.669Z,98769.11
2019-04-28T02:50:20.885Z,98771.78
2019-04-28T02:53:16.174Z,98771.52
2019-04-28T02:55:44.119Z,98769.38
2019-04-28T02:58:13.457Z,98770.44
2019-04-28T03:01:00.384Z,98763.77
2019-04-28T03:03:11.047Z,98759.22
2019-04-28T03:05:41.016Z,98756.30
2019-04-28T03:08:07.127Z,98752.81
2019-04-28T03:10:34.142Z,98754.15
2019-04-28T03:13:01.574Z,98751.19
2019-04-28T03:15:30.286Z,98746.41
2019-04-28T03:17:57.983Z,98748.78
2019-04-28T03:20:25.368Z,98746.93
2019-04-28T03:22:53.125Z,98739.97
2019-04-28T03:25:42.636Z,98740.50
2019-04-28T03:28:28.109Z,98745.05
2019-04-28T03:31:40.660Z,98748.20
2019-04-28T03:33:47.362Z,98746.34
2019-04-28T03:36:15.078Z,98742.35
2019-04-28T03:38:40.595Z,98740.20
2019-04-28T03:41:10.923Z,98740.20
2019-04-28T03:43:37.388Z,98739.13
2019-04-28T03:46:10.546Z,98739.13
2019-04-28T03:48:37.740Z,98741.54
2019-04-28T03:51:04.779Z,98746.06
2019-04-28T03:53:32.801Z,98747.94
2019-04-28T03:56:01.524Z,98746.88
2019-04-28T03:58:31.083Z,98742.61
2019-04-28T04:01:02.676Z,98741.54
2019-04-28T04:03:30.463Z,98741.51
2019-04-28T04:05:57.239Z,98739.39
2019-04-28T04:08:25.177Z,98740.98
2019-04-28T04:11:05.456Z,98747.91
2019-04-28T04:13:55.370Z,98746.31
2019-04-28T04:16:42.081Z,98749.77
2019-04-28T04:19:10.874Z,98748.98
2019-04-28T04:21:40.780Z,98739.91
2019-04-28T04:24:07.463Z,98743.66
2019-04-28T04:26:34.468Z,98750.58
2019-04-28T04:29:01.489Z,98752.43
2019-04-28T04:31:31.487Z,98754.02
2019-04-28T04:33:57.400Z,98751.62
2019-04-28T04:36:24.402Z,98751.62
2019-04-28T04:38:51.873Z,98750.58
2019-04-28T04:41:20.221Z,98754.58
2019-04-28T04:43:47.755Z,98751.09
2019-04-28T04:46:21.894Z,98751.66
2019-04-28T04:48:50.726Z,98755.91
2019-04-28T04:51:17.852Z,98750.31
2019-04-28T04:53:44.877Z,98755.91
2019-04-28T04:56:11.881Z,98752.44
2019-04-28T04:58:40.644Z,98755.09
2019-04-28T05:01:35.428Z,98757.80
2019-04-28T05:04:10.329Z,98753.24
2019-04-28T05:06:37.598Z,98754.58
2019-04-28T05:09:06.856Z,98756.20
2019-04-28T05:11:33.848Z,98764.20
2019-04-28T05:14:00.873Z,98761.80
2019-04-28T05:16:29.667Z,98765.28
2019-04-28T05:18:56.773Z,98772.76
2019-04-28T05:21:23.779Z,98772.20
2019-04-28T05:24:17.413Z,98776.20
2019-04-28T05:26:47.506Z,98777.80
2019-04-28T05:29:14.785Z,98775.42
2019-04-28T05:31:41.790Z,98776.50
2019-04-28T05:34:11.506Z,98784.50
2019-04-28T05:36:44.400Z,98788.76
2019-04-28T05:39:10.409Z,98783.72
2019-04-28T05:41:39.867Z,98784.79
2019-04-28T05:44:07.045Z,98785.83
2019-04-28T05:46:35.084Z,98788.23
2019-04-28T05:49:11.008Z,98793.05
2019-04-28T05:51:40.212Z,98789.05
2019-04-28T05:54:26.108Z,98792.53
2019-04-28T05:57:31.555Z,98786.41
2019-04-28T06:00:15.107Z,98790.67
2019-04-28T06:02:55.905Z,98787.75
2019-04-28T06:05:14.117Z,98796.30
2019-04-28T06:07:53.097Z,98789.66
2019-04-28T06:10:20.304Z,98790.45
2019-04-28T06:12:47.320Z,98788.87
2019-04-28T06:15:14.323Z,98789.42
2019-04-28T06:17:42.638Z,98789.42
2019-04-28T06:20:11.788Z,98788.63
2019-04-28T06:22:39.251Z,98780.91
2019-04-28T06:25:06.506Z,98783.86
2019-04-28T06:27:34.615Z,98788.39
2019-04-28T06:30:01.895Z,98797.49
2019-04-28T06:32:29.113Z,98798.03
2019-04-28T06:34:56.205Z,98793.78
2019-04-28T06:37:23.199Z,98795.13
2019-04-28T06:39:50.265Z,98803.13
2019-04-28T06:42:17.488Z,98797.54
2019-04-28T06:44:44.913Z,98804.47
2019-04-28T06:47:12.029Z,98801.54
2019-04-28T06:49:39.065Z,98811.14
2019-04-28T06:52:06.326Z,98810.34
2019-04-28T06:54:33.358Z,98811.69
2019-04-28T06:57:00.929Z,98810.85
2019-04-28T06:59:29.494Z,98811.65
2019-04-28T07:01:56.571Z,98815.14
2019-04-28T07:04:23.602Z,98819.13
2019-04-28T07:06:50.657Z,98781.22
2019-04-28T07:09:17.753Z,98812.97
2019-04-28T07:11:45.064Z,98807.66
2019-04-28T07:14:13.155Z,98808.96
2019-04-28T07:16:40.858Z,98800.69
2019-04-28T07:19:08.088Z,98801.21
2019-04-28T07:21:50.412Z,98806.31
2019-04-28T07:24:19.068Z,98808.45
2019-04-28T07:26:47.391Z,98801.77
2019-04-28T07:29:15.318Z,98802.81
2019-04-28T07:31:42.948Z,98804.95
2019-04-28T07:34:10.595Z,98804.67
2019-04-28T07:36:38.624Z,98807.34
2019-04-28T07:39:06.021Z,98801.77
2019-04-28T07:41:33.688Z,98814.05
2019-04-28T07:44:01.096Z,98810.28
2019-04-28T07:46:28.448Z,98781.98
2019-04-28T07:48:56.086Z,98812.71
2019-04-28T07:51:25.312Z,98811.61
2019-04-28T07:53:56.473Z,98814.84
2019-04-28T07:56:23.533Z,98815.14
2019-04-28T07:58:51.613Z,98817.25
2019-04-28T08:01:19.096Z,98812.97
2019-04-28T08:03:49.825Z,98822.33
2019-04-28T08:06:15.200Z,98812.44
2019-04-28T08:08:42.991Z,98808.67
2019-04-28T08:11:10.914Z,98804.64
2019-04-28T08:13:39.225Z,98812.67
2019-04-28T08:16:06.331Z,98822.30
2019-04-28T08:18:33.406Z,98733.40
2019-04-28T08:21:00.766Z,98833.02
2019-04-28T08:23:27.818Z,98831.70
2019-04-28T08:25:54.939Z,98833.02
2019-04-28T08:28:22.089Z,98832.22
2019-04-28T08:30:49.156Z,98833.31
2019-04-28T08:33:34.815Z,98836.51
2019-04-28T08:36:02.085Z,98836.78
2019-04-28T08:38:29.417Z,98833.56
2019-04-28T08:40:56.450Z,98835.67
2019-04-28T08:43:24.333Z,98836.41
2019-04-28T08:45:51.363Z,98830.75
2019-04-28T08:48:18.414Z,98828.30
2019-04-28T08:50:45.452Z,98830.44
2019-04-28T08:53:14.026Z,98829.34
2019-04-28T08:55:41.926Z,98819.36
2019-04-28T08:58:08.967Z,98820.84
2019-04-28T09:00:35.995Z,98826.16
2019-04-28T09:03:04.704Z,98823.52
2019-04-28T09:05:31.702Z,98817.98
2019-04-28T09:07:59.664Z,98830.41
2019-04-28T09:10:27.890Z,98832.03
2019-04-28T09:12:54.897Z,98825.67
2019-04-28T09:15:21.910Z,98831.31
2019-04-28T09:17:49.875Z,98829.95
2019-04-28T09:20:16.875Z,98828.89
2019-04-28T09:22:43.878Z,98836.64
2019-04-28T09:25:11.023Z,98829.97
2019-04-28T09:27:38.295Z,98828.91
2019-04-28T09:30:05.856Z,98832.11
2019-04-28T09:32:33.336Z,98816.38
2019-04-28T09:35:00.638Z,98822.29
2019-04-28T09:37:28.251Z,98820.94
2019-04-28T09:40:14.626Z,98818.27
2019-04-28T09:42:51.221Z,98816.38
2019-04-28T09:45:22.276Z,98816.89
2019-04-28T09:47:49.324Z,98809.36
2019-04-28T09:50:17.397Z,98812.52
2019-04-28T09:52:44.433Z,98814.59
2019-04-28T09:55:11.507Z,98817.19
2019-04-28T09:57:38.526Z,98814.23
2019-04-28T10:00:05.886Z,98813.42
2019-04-28T10:02:33.288Z,98811.86
2019-04-28T10:05:00.981Z,98808.66
2019-04-28T10:07:28.580Z,98801.20
2019-04-28T10:09:55.656Z,98802.30
2019-04-28T10:12:27.211Z,98810.09
2019-04-28T10:14:52.896Z,98811.97
2019-04-28T10:17:20.244Z,98817.05
2019-04-28T10:19:47.587Z,98814.92
2019-04-28T10:22:14.635Z,98809.30
2019-04-28T10:24:41.990Z,98814.63
2019-04-28T10:27:09.543Z,98811.95
2019-04-28T10:29:37.441Z,98813.30
2019-04-28T10:32:04.471Z,98816.55
2019-04-28T10:34:31.796Z,98816.82
2019-04-28T10:36:58.828Z,98816.82
2019-04-28T10:39:31.205Z,98823.23
2019-04-28T10:41:58.376Z,98813.06
2019-04-28T10:44:26.707Z,98816.80
2019-04-28T10:46:53.746Z,98814.63
2019-04-28T10:49:20.988Z,98817.58
2019-04-28T10:51:58.849Z,98820.25
2019-04-28T10:54:17.624Z,98819.70
2019-04-28T10:56:44.924Z,98813.25
2019-04-28T10:59:12.228Z,98813.46
2019-04-28T11:01:39.307Z,98808.94
2019-04-28T11:04:10.096Z,98805.98
2019-04-28T11:06:37.299Z,98805.43
2019-04-28T11:09:30.345Z,98810.77
2019-04-28T11:11:49.699Z,98816.91
2019-04-28T11:14:16.721Z,98822.27
2019-04-28T11:16:44.474Z,98828.95
2019-04-28T11:19:11.897Z,98832.48
2019-04-28T11:21:38.948Z,98840.52
2019-04-28T11:24:06.139Z,98834.89
2019-04-28T11:26:33.687Z,98840.22
2019-04-28T11:29:00.720Z,98839.39
2019-04-28T11:31:28.458Z,98831.89
2019-04-28T11:34:02.878Z,98838.02
2019-04-28T11:36:29.929Z,98833.72
2019-04-28T11:38:57.115Z,98833.47
2019-04-28T11:41:24.503Z,98839.91
2019-04-28T11:43:51.621Z,98832.42
2019-04-28T11:46:20.585Z,98832.98
2019-04-28T11:48:48.592Z,98836.77
2019-04-28T11:51:15.648Z,98839.76
2019-04-28T11:53:42.917Z,98841.66
2019-04-28T11:56:09.975Z,98841.38
2019-04-28T11:58:37.882Z,98836.56
2019-04-28T12:01:06.981Z,98837.38
2019-04-28T12:03:34.034Z,98838.73
2019-04-28T12:06:01.810Z,98833.15
2019-04-28T12:08:28.918Z,98832.61
2019-04-28T12:11:18.795Z,98840.67
2019-04-28T12:14:04.338Z,98840.39
2019-04-28T12:16:49.920Z,98835.87
2019-04-28T12:19:22.282Z,98828.38
2019-04-28T12:21:49.918Z,98830.01
2019-04-28T12:24:16.947Z,98821.19
2019-04-28T12:26:43.926Z,98827.35
2019-04-28T12:29:10.945Z,98822.78
2019-04-28T12:31:37.958Z,98825.98
2019-04-28T12:34:04.956Z,98823.03
2019-04-28T12:36:31.963Z,98820.32
2019-04-28T12:38:59.354Z,98820.56
2019-04-28T12:41:26.401Z,98813.06
2019-04-28T12:43:53.681Z,98814.69
2019-04-28T12:46:20.680Z,98815.22
2019-04-28T12:48:50.504Z,98806.11
2019-04-28T12:51:17.669Z,98812.80
2019-04-28T12:53:44.673Z,98807.41
2019-04-28T12:56:12.707Z,98806.59
2019-04-28T12:58:39.708Z,98803.15
2019-04-28T13:01:26.398Z,98793.77
2019-04-28T13:04:06.479Z,98793.73
2019-04-28T13:06:33.805Z,98788.90
2019-04-28T13:09:00.832Z,98791.25
2019-04-28T13:11:28.425Z,98779.73
2019-04-28T13:13:55.433Z,98779.93
2019-04-28T13:16:23.245Z,98775.41
2019-04-28T13:18:51.952Z,98765.76
2019-04-28T13:21:19.579Z,98769.77
2019-04-28T13:23:46.701Z,98764.42
2019-04-28T13:26:13.843Z,98761.23
2019-04-28T13:28:41.234Z,98753.98
2019-04-28T13:31:08.235Z,98754.80
2019-04-28T13:33:35.529Z,98754.52
2019-04-28T13:36:14.099Z,98748.91
2019-04-28T13:38:32.003Z,98738.23
2019-04-28T13:40:59.089Z,98732.09
2019-04-28T13:43:26.097Z,98743.05
2019-04-28T13:45:53.089Z,98736.08
2019-04-28T13:48:20.266Z,98729.13
2019-04-28T13:50:48.915Z,98724.56
2019-04-28T13:53:16.192Z,98721.38
2019-04-28T13:56:00.813Z,98720.05
2019-04-28T13:58:32.845Z,98721.38
2019-04-28T14:01:27.610Z,98707.19
2019-04-28T14:04:10.218Z,98721.63
2019-04-28T14:06:40.462Z,98723.80
2019-04-28T14:09:13.137Z,98720.31
2019-04-28T14:11:40.703Z,98714.94
2019-04-28T14:14:08.334Z,98712.52
2019-04-28T14:16:36.159Z,98704.48
2019-04-28T14:19:03.832Z,98708.19
2019-04-28T14:21:30.919Z,98701.72
2019-04-28T14:23:58.870Z,98703.04
2019-04-28T14:26:26.867Z,98701.95
2019-04-28T14:28:54.831Z,98690.45
2019-04-28T14:31:22.081Z,98693.36
2019-04-28T14:33:50.255Z,98691.98
2019-04-28T14:36:18.627Z,98699.73
2019-04-28T14:38:45.686Z,98694.89
2019-04-28T14:41:12.729Z,98692.95
2019-04-28T14:43:40.738Z,98689.13
2019-04-28T14:46:08.704Z,98693.42
2019-04-28T14:48:36.043Z,98694.20
2019-04-28T14:51:03.149Z,98697.37
2019-04-28T14:53:31.147Z,98700.05
2019-04-28T14:55:58.207Z,98691.20
2019-04-28T14:58:25.484Z,98692.58
2019-04-28T15:00:57.890Z,98700.36
2019-04-28T15:03:26.397Z,98691.02
2019-04-28T15:06:01.855Z,98700.18
2019-04-28T15:08:46.779Z,98695.38
2019-04-28T15:11:36.048Z,98694.89
2019-04-28T15:14:03.059Z,98700.52
2019-04-28T15:16:30.087Z,98700.58
2019-04-28T15:18:57.136Z,98700.86
2019-04-28T15:21:24.180Z,98701.42
2019-04-28T15:23:51.214Z,98696.93
2019-04-28T15:26:18.547Z,98698.30
2019-04-28T15:28:46.847Z,98702.09
2019-04-28T15:31:13.871Z,98699.44
2019-04-28T15:33:40.898Z,98702.91
2019-04-28T15:36:07.933Z,98712.31
2019-04-28T15:38:34.978Z,98706.73
2019-04-28T15:41:02.586Z,98708.34
2019-04-28T15:43:29.621Z,98707.28
2019-04-28T15:45:56.961Z,98706.73
2019-04-28T15:48:24.272Z,98709.68
2019-04-28T15:50:51.901Z,98708.89
2019-04-28T15:53:19.035Z,98707.86
2019-04-28T15:55:56.933Z,98705.99
2019-04-28T15:58:31.576Z,98707.86
2019-04-28T16:01:00.249Z,98704.64
2019-04-28T16:03:27.520Z,98699.84
2019-04-28T16:05:54.682Z,98707.59
2019-04-28T16:08:21.739Z,98704.67
2019-04-28T16:10:49.665Z,98704.92
2019-04-28T16:13:16.737Z,98709.20
2019-04-28T16:15:44.150Z,98711.32
2019-04-28T16:18:11.176Z,98710.77
2019-04-28T16:20:38.498Z,98705.69
2019-04-28T16:23:05.594Z,98700.61
2019-04-28T16:25:32.940Z,98705.16
2019-04-28T16:28:00.305Z,98701.70
2019-04-28T16:30:27.365Z,98706.27
2019-04-28T16:32:54.709Z,98704.92
2019-04-28T16:35:22.319Z,98703.08
2019-04-28T16:37:50.895Z,98707.11
2019-04-28T16:40:18.471Z,98706.06
2019-04-28T16:42:45.504Z,98712.75
2019-04-28T16:45:12.811Z,98706.36
2019-04-28T16:47:39.853Z,98709.06
2019-04-28T16:50:07.716Z,98712.02
2019-04-28T16:52:34.782Z,98714.95
2019-04-28T16:55:21.742Z,98719.55
2019-04-28T16:57:57.625Z,98715.53
2019-04-28T17:00:46.102Z,98719.80
2019-04-28T17:03:13.145Z,98723.31
2019-04-28T17:05:40.563Z,98726.52
2019-04-28T17:08:07.578Z,98725.45
2019-04-28T17:10:34.619Z,98722.25
2019-04-28T17:13:01.891Z,98725.20
2019-04-28T17:15:30.377Z,98732.43
2019-04-28T17:17:57.898Z,98734.31
2019-04-28T17:20:24.925Z,98732.44
2019-04-28T17:22:51.952Z,98732.14
2019-04-28T17:25:19.163Z,98737.97
2019-04-28T17:27:46.173Z,98740.06
2019-04-28T17:30:13.498Z,98730.98
2019-04-28T17:32:41.073Z,98736.84
2019-04-28T17:35:08.238Z,98737.09
2019-04-28T17:37:35.242Z,98744.04
2019-04-28T17:40:02.742Z,98740.84
2019-04-28T17:42:29.951Z,98745.39
2019-04-28T17:44:57.575Z,98748.59
2019-04-28T17:47:24.684Z,98755.27
2019-04-28T17:49:51.736Z,98757.16
2019-04-28T17:52:19.158Z,98762.24
2019-04-28T17:54:46.541Z,98764.09
2019-04-28T17:57:13.941Z,98772.39
2019-04-28T17:59:42.555Z,98768.41
2019-04-28T18:02:32.434Z,98771.36
2019-04-28T18:05:25.519Z,98776.17
2019-04-28T18:07:57.868Z,98780.19
2019-04-28T18:10:25.400Z,98788.22
2019-04-28T18:13:00.394Z,98791.14
2019-04-28T18:15:36.336Z,98799.97
2019-04-28T18:18:35.246Z,98797.03
2019-04-28T18:21:02.595Z,98806.94
2019-04-28T18:23:29.721Z,98809.33
2019-04-28T18:25:57.409Z,98812.06
2019-04-28T18:28:25.034Z,98806.44
2019-04-28T18:31:00.581Z,98809.66
2019-04-28T18:33:50.209Z,98811.25
2019-04-28T18:36:24.265Z,98817.43
2019-04-28T18:38:57.459Z,98816.37
2019-04-28T18:41:50.510Z,98823.33
2019-04-28T18:44:19.951Z,98821.19
2019-04-28T18:46:47.150Z,98823.88
2019-04-28T18:49:14.237Z,98827.08
2019-04-28T18:51:41.313Z,98836.19
2019-04-28T18:54:08.541Z,98839.93
2019-04-28T18:56:36.117Z,98843.39
2019-04-28T18:59:03.175Z,98854.37
2019-04-28T19:01:51.772Z,98862.65
2019-04-28T19:04:19.263Z,98871.21
2019-04-28T19:06:46.737Z,98870.14
2019-04-28T19:09:39.404Z,98852.54
2019-04-28T19:12:12.973Z,98874.97
2019-04-28T19:14:45.387Z,98888.34
2019-04-28T19:17:21.256Z,98890.50
2019-04-28T19:19:48.298Z,98892.36
2019-04-28T19:22:15.352Z,98891.30
2019-04-28T19:24:42.431Z,98892.37
2019-04-28T19:27:09.471Z,98894.48
2019-04-28T19:29:36.542Z,98893.95
2019-04-28T19:32:03.944Z,98894.20
2019-04-28T19:34:31.651Z,98894.77
2019-04-28T19:36:58.774Z,98893.44
2019-04-28T19:39:26.509Z,98894.20
2019-04-28T19:41:53.917Z,98899.81
2019-04-28T19:44:21.650Z,98899.30
2019-04-28T19:46:50.093Z,98899.30
2019-04-28T19:49:17.489Z,98901.69
2019-04-28T19:51:44.841Z,98896.87
2019-04-28T19:54:12.580Z,98897.16
2019-04-28T19:56:52.663Z,98898.23
2019-04-28T19:59:29.058Z,98900.91
2019-04-28T20:01:56.503Z,98902.25
2019-04-28T20:04:23.742Z,98908.95
2019-04-28T20:06:51.415Z,98906.80
2019-04-28T20:09:18.861Z,98910.81
2019-04-28T20:11:46.421Z,98916.97
2019-04-28T20:14:13.751Z,98920.44
2019-04-28T20:16:40.941Z,98922.05
2019-04-28T20:19:08.155Z,98924.70
2019-04-28T20:21:35.202Z,98925.78
2019-04-28T20:24:02.690Z,98926.60
2019-04-28T20:26:30.013Z,98928.20
2019-04-28T20:28:57.423Z,98923.64
2019-04-28T20:31:24.559Z,98928.45
2019-04-28T20:33:51.719Z,98930.86
2019-04-28T20:36:25.613Z,98929.52
2019-04-28T20:38:55.575Z,98929.25
2019-04-28T20:41:24.809Z,98929.00
2019-04-28T20:43:53.496Z,98937.83
2019-04-28T20:46:20.503Z,98934.88
2019-04-28T20:48:48.063Z,98938.37
2019-04-28T20:51:15.352Z,98945.30
2019-04-28T20:53:42.668Z,98946.94
2019-04-28T20:56:10.147Z,98946.39
2019-04-28T20:58:38.556Z,98942.63
2019-04-28T21:01:06.299Z,98939.42
2019-04-28T21:03:33.426Z,98946.92
2019-04-28T21:06:00.741Z,98946.64
2019-04-28T21:08:27.737Z,98949.84
2019-04-28T21:10:54.930Z,98948.53
2019-04-28T21:13:21.943Z,98941.02
2019-04-28T21:15:48.952Z,98945.30
2019-04-28T21:18:16.187Z,98945.32
2019-04-28T21:20:43.467Z,98951.47
2019-04-28T21:23:10.629Z,98953.06
2019-04-28T21:25:37.829Z,98959.21
2019-04-28T21:28:06.440Z,98957.61
2019-04-28T21:30:33.564Z,98965.38
2019-04-28T21:33:00.762Z,98965.91
2019-04-28T21:35:27.905Z,98962.69
2019-04-28T21:37:55.588Z,98965.10
2019-04-28T21:40:23.338Z,98966.16
2019-04-28T21:43:05.742Z,98969.65
2019-04-28T21:45:51.062Z,98966.72
2019-04-28T21:48:49.911Z,98971.24
2019-04-28T21:51:17.007Z,98975.25
2019-04-28T21:53:44.043Z,98975.00
2019-04-28T21:56:11.140Z,98975.27
2019-04-28T21:58:38.161Z,98978.75
2019-04-28T22:01:05.563Z,98973.40
2019-04-28T22:03:32.712Z,98975.27
2019-04-28T22:05:59.743Z,98977.68
2019-04-28T22:08:27.796Z,98977.39
2019-04-28T22:10:54.866Z,98977.95
2019-04-28T22:13:21.897Z,98979.80
2019-04-28T22:15:48.932Z,98981.70
2019-04-28T22:18:16.268Z,98981.69
2019-04-28T22:20:43.576Z,98982.45
2019-04-28T22:23:18.738Z,98985.91
2019-04-28T22:25:43.585Z,98982.17
2019-04-28T22:28:11.745Z,98988.86
2019-04-28T22:30:39.035Z,98988.05
2019-04-28T22:33:06.087Z,98990.98
2019-04-28T22:35:33.373Z,98991.52
2019-04-28T22:38:00.437Z,98989.38
2019-04-28T22:40:28.098Z,98985.08
2019-04-28T22:42:55.213Z,98986.16
2019-04-28T22:45:22.214Z,98989.62
2019-04-28T22:47:50.240Z,98985.61
2019-04-28T22:50:36.728Z,98996.04
2019-04-28T22:53:04.035Z,98994.41
2019-04-28T22:55:33.321Z,98994.42
2019-04-28T22:58:10.923Z,98992.27
2019-04-28T23:01:00.224Z,98988.00
2019-04-28T23:03:34.413Z,98996.24
2019-04-28T23:06:03.110Z,98995.72
2019-04-28T23:08:32.445Z,98997.58
2019-04-28T23:11:00.782Z,98994.09
2019-04-28T23:13:28.641Z,98990.35
2019-04-28T23:15:58.549Z,98995.69
2019-04-28T23:18:27.512Z,98993.84
2019-04-28T23:20:59.798Z,99000.48
2019-04-28T23:23:28.730Z,98995.44
2019-04-28T23:25:58.672Z,98995.14
2019-04-28T23:28:27.669Z,98992.20
2019-04-28T23:30:56.594Z,98992.95
2019-04-28T23:33:25.822Z,98993.48
2019-04-28T23:35:54.808Z,98995.89
2019-04-28T23:38:23.742Z,98995.63
2019-04-28T23:41:04.022Z,98994.52
2019-04-28T23:43:32.949Z,98993.99
2019-04-28T23:46:01.927Z,98994.78
2019-04-28T23:48:31.194Z,98996.92
2019-04-28T23:51:06.953Z,98998.52
2019-04-28T23:53:53.981Z,98999.03
2019-04-28T23:56:23.021Z,98997.96
2019-04-28T23:58:51.966Z,99003.81
